createdAt,value
2019-02-25T00:00:31.696Z,63.71
2019-02-25T00:03:01.211Z,63.41
2019-02-25T00:05:31.003Z,63.03
2019-02-25T00:08:00.539Z,62.77
2019-02-25T00:10:30.078Z,62.63
2019-02-25T00:12:59.689Z,62.58
2019-02-25T00:15:29.134Z,62.61
2019-02-25T00:17:58.654Z,62.45
2019-02-25T00:20:28.150Z,62.69
2019-02-25T00:22:57.669Z,63.09
2019-02-25T00:25:27.156Z,63.60
2019-02-25T00:27:56.644Z,63.55
2019-02-25T00:30:26.135Z,63.53
2019-02-25T00:32:55.662Z,63.89
2019-02-25T00:35:25.163Z,63.97
2019-02-25T00:37:54.645Z,64.23
2019-02-25T00:40:24.136Z,64.39
2019-02-25T00:42:53.690Z,64.68
2019-02-25T00:45:23.238Z,64.76
2019-02-25T00:47:52.718Z,64.91
2019-02-25T00:50:22.355Z,64.91
2019-02-25T00:52:51.863Z,64.86
2019-02-25T00:55:21.360Z,64.94
2019-02-25T00:57:50.834Z,64.81
2019-02-25T01:00:20.580Z,65.02
2019-02-25T01:02:50.175Z,65.05
2019-02-25T01:05:19.875Z,65.29
2019-02-25T01:07:49.503Z,65.37
2019-02-25T01:10:19.066Z,65.33
2019-02-25T01:12:48.870Z,65.50
2019-02-25T01:15:18.389Z,65.67
2019-02-25T01:17:47.917Z,66.01
2019-02-25T01:20:17.432Z,66.21
2019-02-25T01:22:46.953Z,66.31
2019-02-25T01:25:16.434Z,66.27
2019-02-25T01:27:45.923Z,66.34
2019-02-25T01:30:15.909Z,66.25
2019-02-25T01:32:45.396Z,66.10
2019-02-25T01:35:14.896Z,66.20
2019-02-25T01:37:44.381Z,66.08
2019-02-25T01:40:14.064Z,65.74
2019-02-25T01:42:43.655Z,65.67
2019-02-25T01:45:13.615Z,65.67
2019-02-25T01:47:43.089Z,65.73
2019-02-25T01:50:12.591Z,65.06
2019-02-25T01:52:42.115Z,65.69
2019-02-25T01:55:11.746Z,64.70
2019-02-25T01:57:41.411Z,63.80
2019-02-25T02:00:13.662Z,63.73
2019-02-25T02:02:43.131Z,63.85
2019-02-25T02:05:12.755Z,64.32
2019-02-25T02:07:42.291Z,64.74
2019-02-25T02:10:12.689Z,65.27
2019-02-25T02:12:42.265Z,65.46
2019-02-25T02:15:13.875Z,65.75
2019-02-25T02:17:43.343Z,66.29
2019-02-25T02:20:14.449Z,66.04
2019-02-25T02:22:43.934Z,65.97
2019-02-25T02:25:14.227Z,66.22
2019-02-25T02:27:43.820Z,66.11
2019-02-25T02:30:16.304Z,66.55
2019-02-25T02:32:45.799Z,67.19
2019-02-25T02:35:15.291Z,67.29
2019-02-25T02:37:44.787Z,67.07
2019-02-25T02:40:14.506Z,66.81
2019-02-25T02:42:46.608Z,67.83
2019-02-25T02:45:28.741Z,68.33
2019-02-25T02:48:01.506Z,68.37
2019-02-25T02:50:31.030Z,68.57
2019-02-25T02:53:00.541Z,68.77
2019-02-25T02:55:30.061Z,68.80
2019-02-25T02:57:59.529Z,68.41
2019-02-25T03:00:29.040Z,68.02
2019-02-25T03:02:58.560Z,67.79
2019-02-25T03:05:29.811Z,67.83
2019-02-25T03:07:59.351Z,67.98
2019-02-25T03:10:28.876Z,68.18
2019-02-25T03:12:58.394Z,67.48
2019-02-25T03:15:27.851Z,67.64
2019-02-25T03:17:57.337Z,67.71
2019-02-25T03:20:26.797Z,67.66
2019-02-25T03:22:56.349Z,67.52
2019-02-25T03:25:25.831Z,67.82
2019-02-25T03:27:55.378Z,68.04
2019-02-25T03:30:24.872Z,67.98
2019-02-25T03:32:54.409Z,68.41
2019-02-25T03:35:23.924Z,68.17
2019-02-25T03:37:53.492Z,67.75
2019-02-25T03:40:23.116Z,67.95
2019-02-25T03:42:52.622Z,67.62
2019-02-25T03:45:22.222Z,67.50
2019-02-25T03:47:51.727Z,66.44
2019-02-25T03:50:21.260Z,66.13
2019-02-25T03:52:50.728Z,66.24
2019-02-25T03:55:20.515Z,66.56
2019-02-25T03:57:50.250Z,65.97
2019-02-25T04:00:21.557Z,65.78
2019-02-25T04:02:51.143Z,65.51
2019-02-25T04:05:20.652Z,65.21
2019-02-25T04:07:50.583Z,65.18
2019-02-25T04:10:20.093Z,65.58
2019-02-25T04:12:49.599Z,65.44
2019-02-25T04:15:22.693Z,64.99
2019-02-25T04:17:52.167Z,64.37
2019-02-25T04:20:21.619Z,63.81
2019-02-25T04:22:51.158Z,63.55
2019-02-25T04:25:20.656Z,63.74
2019-02-25T04:27:50.141Z,63.80
2019-02-25T04:30:19.659Z,64.03
2019-02-25T04:32:49.223Z,63.98
2019-02-25T04:35:18.700Z,64.36
2019-02-25T04:37:48.231Z,64.55
2019-02-25T04:40:17.734Z,64.39
2019-02-25T04:42:47.261Z,64.90
2019-02-25T04:45:17.882Z,64.34
2019-02-25T04:47:47.402Z,64.14
2019-02-25T04:50:16.901Z,64.34
2019-02-25T04:52:46.408Z,64.07
2019-02-25T04:55:15.895Z,64.37
2019-02-25T04:57:45.555Z,64.35
2019-02-25T05:00:16.662Z,64.60
2019-02-25T05:02:46.103Z,65.14
2019-02-25T05:05:15.620Z,65.30
2019-02-25T05:07:45.162Z,66.17
2019-02-25T05:10:14.834Z,66.12
2019-02-25T05:12:50.646Z,66.05
2019-02-25T05:15:22.429Z,66.00
2019-02-25T05:17:51.915Z,65.42
2019-02-25T05:20:21.546Z,65.65
2019-02-25T05:22:51.031Z,65.11
2019-02-25T05:25:20.537Z,65.41
2019-02-25T05:27:50.052Z,65.81
2019-02-25T05:30:19.632Z,66.20
2019-02-25T05:32:49.111Z,65.62
2019-02-25T05:35:18.677Z,65.62
2019-02-25T05:37:48.259Z,65.13
2019-02-25T05:40:17.863Z,64.85
2019-02-25T05:42:47.418Z,64.98
2019-02-25T05:45:17.110Z,65.63
2019-02-25T05:47:46.632Z,66.17
2019-02-25T05:50:16.177Z,66.66
2019-02-25T05:52:45.700Z,66.40
2019-02-25T05:55:15.278Z,66.41
2019-02-25T05:57:44.798Z,66.44
2019-02-25T06:00:18.353Z,66.09
2019-02-25T06:02:47.870Z,65.90
2019-02-25T06:05:17.414Z,65.81
2019-02-25T06:07:46.955Z,65.51
2019-02-25T06:10:16.446Z,65.29
2019-02-25T06:12:45.963Z,65.03
2019-02-25T06:15:15.906Z,64.61
2019-02-25T06:17:45.431Z,64.19
2019-02-25T06:20:15.252Z,63.75
2019-02-25T06:22:44.760Z,63.48
2019-02-25T06:25:14.647Z,63.13
2019-02-25T06:27:44.222Z,62.54
2019-02-25T06:30:15.974Z,62.55
2019-02-25T06:32:45.468Z,62.24
2019-02-25T06:35:16.081Z,62.25
2019-02-25T06:37:45.595Z,62.49
2019-02-25T06:40:16.213Z,61.95
2019-02-25T06:42:45.885Z,61.91
2019-02-25T06:45:16.846Z,61.60
2019-02-25T06:47:46.372Z,61.45
2019-02-25T06:50:15.856Z,61.57
2019-02-25T06:52:45.365Z,60.99
2019-02-25T06:55:15.432Z,60.38
2019-02-25T06:57:44.950Z,60.48
2019-02-25T07:00:16.385Z,60.30
2019-02-25T07:02:45.834Z,60.04
2019-02-25T07:05:43.419Z,59.18
2019-02-25T07:08:20.488Z,58.71
2019-02-25T07:11:08.937Z,57.78
2019-02-25T07:14:00.249Z,58.05
2019-02-25T07:16:37.900Z,57.00
2019-02-25T07:19:17.313Z,56.63
2019-02-25T07:22:11.877Z,56.54
2019-02-25T07:25:09.443Z,56.77
2019-02-25T07:28:04.187Z,56.20
2019-02-25T07:31:07.880Z,56.32
2019-02-25T07:33:43.910Z,55.93
2019-02-25T07:36:50.854Z,55.84
2019-02-25T07:39:57.425Z,56.03
2019-02-25T07:42:54.928Z,56.27
2019-02-25T07:45:40.305Z,56.44
2019-02-25T07:48:17.897Z,56.05
2019-02-25T07:51:09.087Z,56.16
2019-02-25T07:54:12.936Z,56.28
2019-02-25T07:56:53.612Z,55.98
2019-02-25T07:59:48.128Z,56.71
2019-02-25T08:02:42.921Z,56.27
2019-02-25T08:05:24.261Z,56.18
2019-02-25T08:08:15.507Z,55.70
2019-02-25T08:11:15.937Z,56.28
2019-02-25T08:14:03.427Z,55.66
2019-02-25T08:16:48.395Z,56.14
2019-02-25T08:19:39.910Z,54.85
2019-02-25T08:22:24.502Z,54.82
2019-02-25T08:25:19.162Z,54.52
2019-02-25T08:28:01.428Z,52.84
2019-02-25T08:30:45.471Z,52.50
2019-02-25T08:33:32.713Z,52.25
2019-02-25T08:37:02.828Z,51.76
2019-02-25T08:39:42.231Z,51.13
2019-02-25T08:42:19.814Z,48.38
2019-02-25T08:45:06.835Z,46.09
2019-02-25T08:47:55.234Z,45.71
2019-02-25T08:50:24.707Z,46.17
2019-02-25T08:52:54.179Z,46.07
2019-02-25T08:55:23.720Z,46.05
2019-02-25T08:57:53.249Z,46.49
2019-02-25T09:00:22.750Z,45.77
2019-02-25T09:02:52.274Z,44.72
2019-02-25T09:05:21.801Z,45.57
2019-02-25T09:07:51.293Z,44.16
2019-02-25T09:10:20.808Z,43.92
2019-02-25T09:12:50.333Z,42.88
2019-02-25T09:15:19.853Z,42.29
2019-02-25T09:17:47.597Z,40.71
2019-02-25T09:20:17.093Z,41.18
2019-02-25T09:22:46.569Z,40.26
2019-02-25T09:25:16.076Z,40.07
2019-02-25T09:27:45.568Z,40.45
2019-02-25T09:30:16.546Z,39.71
2019-02-25T09:32:46.037Z,39.46
2019-02-25T09:35:15.766Z,38.15
2019-02-25T09:37:45.254Z,38.87
2019-02-25T09:40:15.660Z,38.62
2019-02-25T09:42:45.352Z,38.39
2019-02-25T09:45:15.661Z,38.79
2019-02-25T09:47:45.123Z,39.19
2019-02-25T09:50:14.901Z,38.61
2019-02-25T09:52:44.391Z,38.91
2019-02-25T09:55:13.961Z,37.47
2019-02-25T09:57:43.466Z,37.44
2019-02-25T10:00:15.780Z,37.33
2019-02-25T10:02:45.303Z,36.69
2019-02-25T10:05:14.888Z,36.79
2019-02-25T10:07:44.406Z,36.80
2019-02-25T10:10:14.436Z,37.01
2019-02-25T10:12:43.897Z,37.62
2019-02-25T10:15:14.377Z,36.67
2019-02-25T10:17:43.895Z,36.42
2019-02-25T10:20:13.412Z,36.59
2019-02-25T10:22:42.851Z,36.65
2019-02-25T10:25:12.349Z,36.96
2019-02-25T10:27:41.819Z,36.80
2019-02-25T10:30:12.143Z,36.77
2019-02-25T10:32:41.638Z,36.43
2019-02-25T10:35:12.069Z,36.75
2019-02-25T10:37:43.666Z,36.81
2019-02-25T10:40:15.503Z,37.06
2019-02-25T10:42:45.213Z,36.76
2019-02-25T10:45:16.277Z,37.56
2019-02-25T10:47:46.598Z,37.36
2019-02-25T10:50:17.191Z,35.97
2019-02-25T10:52:47.642Z,37.21
2019-02-25T10:55:30.339Z,37.23
2019-02-25T10:58:02.049Z,37.61
2019-02-25T11:00:31.175Z,37.87
2019-02-25T11:03:00.656Z,37.76
2019-02-25T11:05:30.705Z,36.31
2019-02-25T11:08:03.173Z,36.57
2019-02-25T11:10:35.727Z,36.76
2019-02-25T11:13:05.406Z,37.03
2019-02-25T11:15:37.567Z,37.30
2019-02-25T11:18:08.270Z,38.06
2019-02-25T11:20:37.963Z,37.18
2019-02-25T11:23:07.631Z,37.19
2019-02-25T11:25:37.117Z,37.39
2019-02-25T11:28:07.705Z,37.21
2019-02-25T11:30:38.026Z,36.85
2019-02-25T11:33:07.490Z,36.20
2019-02-25T11:35:38.810Z,36.28
2019-02-25T11:38:08.185Z,36.51
2019-02-25T11:40:38.388Z,36.76
2019-02-25T11:43:08.783Z,36.43
2019-02-25T11:45:39.186Z,36.61
2019-02-25T11:48:08.645Z,37.25
2019-02-25T11:50:38.124Z,37.37
2019-02-25T11:53:07.693Z,37.67
2019-02-25T11:55:37.194Z,37.29
2019-02-25T11:58:06.654Z,37.84
2019-02-25T12:00:36.113Z,37.78
2019-02-25T12:03:05.598Z,38.33
2019-02-25T12:05:35.054Z,38.88
2019-02-25T12:08:04.559Z,38.21
2019-02-25T12:10:34.060Z,38.65
2019-02-25T12:13:03.565Z,38.70
2019-02-25T12:15:33.260Z,38.75
2019-02-25T12:18:02.797Z,38.86
2019-02-25T12:20:32.496Z,38.46
2019-02-25T12:23:02.002Z,39.19
2019-02-25T12:25:31.538Z,40.04
2019-02-25T12:28:01.024Z,39.00
2019-02-25T12:30:30.612Z,39.54
2019-02-25T12:33:00.076Z,39.29
2019-02-25T12:35:29.524Z,40.23
2019-02-25T12:37:59.305Z,40.04
2019-02-25T12:40:28.783Z,40.54
2019-02-25T12:42:58.257Z,40.86
2019-02-25T12:45:27.858Z,41.08
2019-02-25T12:47:57.364Z,41.32
2019-02-25T12:50:26.891Z,40.87
2019-02-25T12:52:56.475Z,41.72
2019-02-25T12:55:26.005Z,41.10
2019-02-25T12:57:55.516Z,41.07
2019-02-25T13:00:25.015Z,40.50
2019-02-25T13:02:54.489Z,40.97
2019-02-25T13:05:23.964Z,40.91
2019-02-25T13:07:53.405Z,41.31
2019-02-25T13:10:22.895Z,41.70
2019-02-25T13:12:52.391Z,42.42
2019-02-25T13:15:21.890Z,41.70
2019-02-25T13:17:51.435Z,41.82
2019-02-25T13:20:20.924Z,42.07
2019-02-25T13:22:50.424Z,42.00
2019-02-25T13:25:19.936Z,42.26
2019-02-25T13:27:49.395Z,42.05
2019-02-25T13:30:18.861Z,41.82
2019-02-25T13:32:48.433Z,42.62
2019-02-25T13:35:17.978Z,42.19
2019-02-25T13:37:47.442Z,42.58
2019-02-25T13:40:16.972Z,42.77
2019-02-25T13:42:46.552Z,42.53
2019-02-25T13:45:16.049Z,42.58
2019-02-25T13:47:45.533Z,42.72
2019-02-25T13:50:15.212Z,42.51
2019-02-25T13:52:48.476Z,42.41
2019-02-25T13:55:16.032Z,42.92
2019-02-25T13:57:45.529Z,42.75
2019-02-25T14:00:19.219Z,43.48
2019-02-25T14:02:49.020Z,43.49
2019-02-25T14:05:18.523Z,43.69
2019-02-25T14:07:48.309Z,43.20
2019-02-25T14:10:18.268Z,42.66
2019-02-25T14:12:47.912Z,43.31
2019-02-25T14:15:17.805Z,43.23
2019-02-25T14:17:47.351Z,42.82
2019-02-25T14:20:18.149Z,43.67
2019-02-25T14:22:47.638Z,44.02
2019-02-25T14:25:19.712Z,44.21
2019-02-25T14:27:49.413Z,44.59
2019-02-25T14:30:21.454Z,44.89
2019-02-25T14:32:53.367Z,45.20
2019-02-25T14:35:27.854Z,45.40
2019-02-25T14:37:57.656Z,45.29
2019-02-25T14:40:31.554Z,45.41
2019-02-25T14:43:00.617Z,45.50
2019-02-25T14:45:33.571Z,45.42
2019-02-25T14:48:04.848Z,45.64
2019-02-25T14:50:33.561Z,45.33
2019-02-25T14:53:04.021Z,44.88
2019-02-25T14:55:34.327Z,45.20
2019-02-25T14:58:05.341Z,45.21
2019-02-25T15:00:37.897Z,45.36
2019-02-25T15:03:06.334Z,45.45
2019-02-25T15:05:36.204Z,45.18
2019-02-25T15:08:05.709Z,45.31
2019-02-25T15:10:36.225Z,45.12
2019-02-25T15:13:08.372Z,45.14
2019-02-25T15:15:39.185Z,45.53
2019-02-25T15:18:09.097Z,45.68
2019-02-25T15:20:38.664Z,45.59
2019-02-25T15:23:12.463Z,45.60
2019-02-25T15:25:42.480Z,45.95
2019-02-25T15:28:11.932Z,46.41
2019-02-25T15:30:43.167Z,46.01
2019-02-25T15:33:12.878Z,46.03
2019-02-25T15:35:43.828Z,46.04
2019-02-25T15:38:13.901Z,46.09
2019-02-25T15:40:43.583Z,46.32
2019-02-25T15:43:15.402Z,46.06
2019-02-25T15:45:45.903Z,45.80
2019-02-25T15:48:17.338Z,45.82
2019-02-25T15:50:48.423Z,46.21
2019-02-25T15:53:18.493Z,46.39
2019-02-25T15:55:48.399Z,46.38
2019-02-25T15:58:18.523Z,46.35
2019-02-25T16:00:48.490Z,46.53
2019-02-25T16:03:20.480Z,46.60
2019-02-25T16:05:52.277Z,46.50
2019-02-25T16:08:24.283Z,46.66
2019-02-25T16:10:55.758Z,46.83
2019-02-25T16:13:26.408Z,47.20
2019-02-25T16:15:55.972Z,47.39
2019-02-25T16:18:27.797Z,47.83
2019-02-25T16:20:57.547Z,47.40
2019-02-25T16:23:30.174Z,47.56
2019-02-25T16:25:59.453Z,47.01
2019-02-25T16:28:30.740Z,46.89
2019-02-25T16:31:00.241Z,47.06
2019-02-25T16:33:30.947Z,47.00
2019-02-25T16:36:01.675Z,46.97
2019-02-25T16:38:34.134Z,47.15
2019-02-25T16:41:05.555Z,47.32
2019-02-25T16:43:34.914Z,47.34
2019-02-25T16:46:06.452Z,47.64
2019-02-25T16:48:35.710Z,47.63
2019-02-25T16:51:07.273Z,47.49
2019-02-25T16:53:38.702Z,47.28
2019-02-25T16:56:09.488Z,47.74
2019-02-25T16:58:39.062Z,48.11
2019-02-25T17:01:10.493Z,48.23
2019-02-25T17:03:41.490Z,48.47
2019-02-25T17:06:12.033Z,48.45
2019-02-25T17:08:42.573Z,48.50
2019-02-25T17:11:12.897Z,48.47
2019-02-25T17:13:43.307Z,48.72
2019-02-25T17:16:18.028Z,48.81
2019-02-25T17:18:45.902Z,49.11
2019-02-25T17:21:15.364Z,49.76
2019-02-25T17:23:44.884Z,49.73
2019-02-25T17:26:15.657Z,49.96
2019-02-25T17:28:45.778Z,50.23
2019-02-25T17:31:16.348Z,50.65
2019-02-25T17:33:47.277Z,50.59
2019-02-25T17:36:17.899Z,50.34
2019-02-25T17:38:49.643Z,50.24
2019-02-25T17:41:18.971Z,50.37
2019-02-25T17:43:48.558Z,50.54
2019-02-25T17:46:18.063Z,50.27
2019-02-25T17:48:47.560Z,50.45
2019-02-25T17:51:18.658Z,50.50
2019-02-25T17:53:50.410Z,50.51
2019-02-25T17:56:20.849Z,50.23
2019-02-25T17:58:51.411Z,50.37
2019-02-25T18:01:23.219Z,50.63
2019-02-25T18:03:52.177Z,50.63
2019-02-25T18:06:23.319Z,50.60
2019-02-25T18:08:53.538Z,50.09
2019-02-25T18:11:24.700Z,50.19
2019-02-25T18:13:55.726Z,49.67
2019-02-25T18:16:25.678Z,49.81
2019-02-25T18:18:55.598Z,50.15
2019-02-25T18:21:28.888Z,50.01
2019-02-25T18:23:57.819Z,50.31
2019-02-25T18:26:28.621Z,50.30
2019-02-25T18:28:58.780Z,50.32
2019-02-25T18:31:28.765Z,51.16
2019-02-25T18:33:58.301Z,51.66
2019-02-25T18:36:29.372Z,52.02
2019-02-25T18:38:59.583Z,53.19
2019-02-25T18:41:32.437Z,53.57
2019-02-25T18:44:00.443Z,53.91
2019-02-25T18:46:30.457Z,53.94
2019-02-25T18:49:00.247Z,54.51
2019-02-25T18:51:30.454Z,54.80
2019-02-25T18:54:03.293Z,54.86
2019-02-25T18:56:33.662Z,55.21
2019-02-25T18:59:08.714Z,54.34
2019-02-25T19:01:35.607Z,54.10
2019-02-25T19:04:06.139Z,54.27
2019-02-25T19:06:39.293Z,54.08
2019-02-25T19:09:18.252Z,53.99
2019-02-25T19:11:49.123Z,53.51
2019-02-25T19:14:21.682Z,51.98
2019-02-25T19:16:52.384Z,52.04
2019-02-25T19:19:22.198Z,51.49
2019-02-25T19:21:52.547Z,52.15
2019-02-25T19:24:23.253Z,52.64
2019-02-25T19:26:52.962Z,53.25
2019-02-25T19:29:23.835Z,54.33
2019-02-25T19:31:53.804Z,55.27
2019-02-25T19:34:23.300Z,56.14
2019-02-25T19:36:52.945Z,56.81
2019-02-25T19:39:22.548Z,57.09
2019-02-25T19:41:53.808Z,56.89
2019-02-25T19:44:23.536Z,57.11
2019-02-25T19:46:53.886Z,56.95
2019-02-25T19:49:24.364Z,56.90
2019-02-25T19:51:54.149Z,56.83
2019-02-25T19:54:23.655Z,56.99
2019-02-25T19:56:55.474Z,56.73
2019-02-25T19:59:26.404Z,56.37
2019-02-25T20:01:55.766Z,55.64
2019-02-25T20:04:25.242Z,55.38
2019-02-25T20:06:56.108Z,53.83
2019-02-25T20:09:26.793Z,53.84
2019-02-25T20:11:57.336Z,54.23
2019-02-25T20:14:27.005Z,54.26
2019-02-25T20:16:56.611Z,53.85
2019-02-25T20:19:26.221Z,53.94
2019-02-25T20:21:56.862Z,54.22
2019-02-25T20:24:26.564Z,54.53
2019-02-25T20:26:58.488Z,55.07
2019-02-25T20:29:27.397Z,55.28
2019-02-25T20:31:58.281Z,55.52
2019-02-25T20:34:29.714Z,56.11
2019-02-25T20:36:59.909Z,53.83
2019-02-25T20:39:31.752Z,53.38
2019-02-25T20:42:01.934Z,51.46
2019-02-25T20:44:33.230Z,50.90
2019-02-25T20:47:04.108Z,50.59
2019-02-25T20:49:33.977Z,50.21
2019-02-25T20:52:03.517Z,50.26
2019-02-25T20:54:37.804Z,50.09
2019-02-25T20:57:04.538Z,50.02
2019-02-25T20:59:34.917Z,49.77
2019-02-25T21:02:07.465Z,49.56
2019-02-25T21:04:38.533Z,49.25
2019-02-25T21:07:08.849Z,49.28
2019-02-25T21:09:40.392Z,49.54
2019-02-25T21:12:10.443Z,49.15
2019-02-25T21:14:42.724Z,49.26
2019-02-25T21:17:12.248Z,49.43
2019-02-25T21:19:44.145Z,49.47
2019-02-25T21:22:13.025Z,49.54
2019-02-25T21:24:42.455Z,49.71
2019-02-25T21:27:11.988Z,49.81
2019-02-25T21:29:41.442Z,49.74
2019-02-25T21:32:15.335Z,49.63
2019-02-25T21:34:42.165Z,49.68
2019-02-25T21:37:11.663Z,49.81
2019-02-25T21:39:42.852Z,49.73
2019-02-25T21:42:14.759Z,49.80
2019-02-25T21:44:46.403Z,49.43
2019-02-25T21:47:15.084Z,49.62
2019-02-25T21:49:44.582Z,49.58
2019-02-25T21:52:15.397Z,49.82
2019-02-25T21:54:45.315Z,49.61
2019-02-25T21:57:14.759Z,49.91
2019-02-25T21:59:44.266Z,49.89
2019-02-25T22:02:13.819Z,50.03
2019-02-25T22:04:45.376Z,50.18
2019-02-25T22:07:19.831Z,50.34
2019-02-25T22:09:46.014Z,50.35
2019-02-25T22:12:15.621Z,50.38
2019-02-25T22:14:46.088Z,50.87
2019-02-25T22:17:19.533Z,51.23
2019-02-25T22:19:48.567Z,51.07
2019-02-25T22:22:19.333Z,51.15
2019-02-25T22:24:50.064Z,51.26
2019-02-25T22:27:21.194Z,51.13
2019-02-25T22:29:50.805Z,51.12
2019-02-25T22:32:20.316Z,51.27
2019-02-25T22:34:49.800Z,51.56
2019-02-25T22:37:21.546Z,51.73
2019-02-25T22:39:52.479Z,51.89
2019-02-25T22:42:21.666Z,51.73
2019-02-25T22:44:51.716Z,51.86
2019-02-25T22:47:23.068Z,52.03
2019-02-25T22:49:52.606Z,52.06
2019-02-25T22:52:24.517Z,52.22
2019-02-25T22:54:53.347Z,52.32
2019-02-25T22:57:23.657Z,52.12
2019-02-25T22:59:54.073Z,51.89
2019-02-25T23:02:27.292Z,52.41
2019-02-25T23:04:56.294Z,52.45
2019-02-25T23:07:25.844Z,51.96
2019-02-25T23:09:55.331Z,51.71
2019-02-25T23:12:27.228Z,51.67
2019-02-25T23:14:58.140Z,51.50
2019-02-25T23:17:31.103Z,51.28
2019-02-25T23:20:00.170Z,51.50
2019-02-25T23:22:30.687Z,51.20
2019-02-25T23:25:01.243Z,51.04
2019-02-25T23:27:32.247Z,51.15
2019-02-25T23:30:01.840Z,50.94
2019-02-25T23:32:31.332Z,51.12
2019-02-25T23:35:00.834Z,51.37
2019-02-25T23:37:30.319Z,50.82
2019-02-25T23:40:02.195Z,50.96
2019-02-25T23:42:33.003Z,51.06
2019-02-25T23:45:02.157Z,50.91
2019-02-25T23:47:33.373Z,50.78
2019-02-25T23:50:04.143Z,50.52
2019-02-25T23:52:35.851Z,50.58
2019-02-25T23:55:06.192Z,50.51
2019-02-25T23:57:35.712Z,50.41
